Sterling, OH (44276)

11:37 PM EDT on September 02, 2014 (GMT -0400)
Guilford Twp, Rawiga Rd | Change Station
CLOSE
Current Station
Personal Weather Station
Location: Seville, OH
Elevation: 1120 ft
Nearby Weather Stations

Elev 1120 ft 41.00 °N, 81.82 °W | Updated 2 seconds ago

Clear
Clear
64.5 °F
Feels Like 64.5 °F
N
0.0
Wind Variable Wind from North
Gusts 0.0 mph

Today
High -- | Low -- °F
--% Chance of Precip.
Yesterday
High -- | Low -- °F
Precip. -- in
6:55 AM 7:58 PM
First Quarter, 58% visible
Pressure 29.98 in
Visibility 7.0 miles
Clouds Clear
Dew Point 64 °F
Humidity 98%
Rainfall 0.02 in
Snow Depth Not available.
UV 0 out of 12
Pollen 5.10 out of 12
Air Quality Not available.
Flu Activity Not available.
METAR KBJJ 030256Z AUTO 25004KT 7SM CLR 17/16 A3000 RMK AO2 SLP152 T01720161 51015 TSNO

More Conditions Fewer Conditions

Pressure 29.98 in
Visibility 7.0 miles
Clouds Clear
Dew Point 64 °F
Humidity 98%
Rainfall 0.02 in
Snow Depth Not available.
UV 0 out of 12
Pollen 5.10 out of 12
Air Quality Not available.
Flu Activity Not available.
METAR KBJJ 030256Z AUTO 25004KT 7SM CLR 17/16 A3000 RMK AO2 SLP152 T01720161 51015 TSNO

More Conditions Fewer Conditions

10-Day Weather Forecast

Almanac

Astronomy

Sep. 02, 2014 Rise Set
Actual Time 6:55 AM EDT 7:58 PM EDT
Civil Twilight 6:26 AM EDT 8:26 PM EDT
Nautical Twilight 5:53 AM EDT 8:59 PM EDT
Astronomical Twilight 5:18 AM EDT 9:34 PM EDT
Moon 2:41 PM EDT (9/2) No Moon Set
Length of Visible Light 13h 59m
Length of Day
13h 03m
Tomorrow will be 2m 37s shorter.
First Quarter, 58% of the Moon is Illuminated
Today
First Quarter
Sep 8
Full
Sep 15
Last Quarter
Sep 24
New
Oct 1
First Quarter

Today's Extremes

State Highs State Lows

Community

WunderPhotos

Upload Photos

1,749,867 photos uploaded!

WunderBlogs® & News

Nearby

Snow Depth

Station Depth Elevation
No new snow has been reported.

Earthquake Activity

City Distance Mag. Time & Date
No recent earthquake activity has been reported nearby.
Minimum magnitude displayed is 2.5.

Coastal Water Temperatures

Place Temperature
No Stations Reporting

Nearby Weather Stations